createdAt,value
2019-02-05T00:01:09.837Z,5.50
2019-02-05T00:03:58.076Z,5.37
2019-02-05T00:06:45.398Z,5.00
2019-02-05T00:09:32.925Z,5.63
2019-02-05T00:12:20.657Z,5.70
2019-02-05T00:15:08.293Z,5.43
2019-02-05T00:17:55.507Z,5.17
2019-02-05T00:20:43.510Z,5.53
2019-02-05T00:23:30.657Z,5.17
2019-02-05T00:26:18.493Z,5.77
2019-02-05T00:29:05.916Z,5.87
2019-02-05T00:31:54.056Z,5.57
2019-02-05T00:34:41.070Z,5.57
2019-02-05T00:37:28.700Z,5.07
2019-02-05T00:40:16.739Z,5.17
2019-02-05T00:43:04.063Z,5.67
2019-02-05T00:45:51.597Z,5.63
2019-02-05T00:48:39.009Z,5.87
2019-02-05T00:51:26.638Z,5.33
2019-02-05T00:54:18.773Z,5.27
2019-02-05T00:57:06.392Z,5.60
2019-02-05T00:59:53.644Z,5.80
2019-02-05T01:02:41.045Z,5.90
2019-02-05T01:05:28.572Z,6.00
2019-02-05T01:08:15.998Z,5.93
2019-02-05T01:11:03.635Z,6.20
2019-02-05T01:13:51.149Z,5.80
2019-02-05T01:16:39.086Z,6.30
2019-02-05T01:19:26.820Z,6.40
2019-02-05T01:22:13.731Z,6.23
2019-02-05T01:25:00.950Z,6.73
2019-02-05T01:27:48.770Z,6.30
2019-02-05T01:30:36.220Z,6.93
2019-02-05T01:33:23.838Z,6.43
2019-02-05T01:36:10.973Z,7.03
2019-02-05T01:38:58.374Z,7.73
2019-02-05T01:41:46.210Z,7.63
2019-02-05T01:44:33.637Z,7.93
2019-02-05T01:47:21.263Z,7.77
2019-02-05T01:50:11.213Z,7.17
2019-02-05T01:52:58.572Z,7.27
2019-02-05T01:55:46.401Z,7.50
2019-02-05T01:58:33.622Z,6.80
2019-02-05T02:01:21.559Z,7.60
2019-02-05T02:04:08.986Z,7.83
2019-02-05T02:06:56.203Z,7.77
2019-02-05T02:09:43.530Z,7.80
2019-02-05T02:12:30.749Z,8.13
2019-02-05T02:15:18.757Z,7.90
2019-02-05T02:18:06.473Z,8.60
2019-02-05T02:20:53.628Z,8.43
2019-02-05T02:23:41.155Z,8.77
2019-02-05T02:26:28.889Z,8.13
2019-02-05T02:29:16.106Z,8.90
2019-02-05T02:32:03.335Z,8.27
2019-02-05T02:34:50.651Z,8.87
2019-02-05T02:37:38.174Z,9.30
2019-02-05T02:40:25.902Z,8.83
2019-02-05T02:43:13.335Z,8.80
2019-02-05T02:46:01.265Z,8.47
2019-02-05T02:48:48.483Z,8.37
2019-02-05T02:51:36.317Z,8.57
2019-02-05T02:54:23.541Z,9.23
2019-02-05T02:57:11.575Z,9.57
2019-02-05T02:59:59.313Z,8.73
2019-02-05T03:02:47.348Z,8.87
2019-02-05T03:05:34.973Z,9.33
2019-02-05T03:08:22.705Z,9.83
2019-02-05T03:11:09.823Z,9.67
2019-02-05T03:13:56.732Z,9.50
2019-02-05T03:16:44.360Z,9.10
2019-02-05T03:19:31.686Z,9.93
2019-02-05T03:22:18.696Z,9.33
2019-02-05T03:25:09.713Z,9.93
2019-02-05T03:27:57.339Z,9.10
2019-02-05T03:30:44.668Z,9.60
2019-02-05T03:33:32.191Z,9.73
2019-02-05T03:36:19.402Z,8.57
2019-02-05T03:39:07.644Z,9.43
2019-02-05T03:41:56.196Z,9.10
2019-02-05T03:44:43.649Z,9.63
2019-02-05T03:47:31.253Z,9.30
2019-02-05T03:50:18.774Z,9.23
2019-02-05T03:53:30.263Z,9.83
2019-02-05T03:56:54.345Z,9.80
2019-02-05T03:59:56.928Z,10.23
2019-02-05T04:02:50.299Z,10.50
2019-02-05T04:06:01.775Z,9.50
2019-02-05T04:09:05.490Z,10.40
2019-02-05T04:12:30.897Z,9.60
2019-02-05T04:15:33.682Z,9.47
2019-02-05T04:18:33.494Z,10.03
2019-02-05T04:21:26.548Z,10.13
2019-02-05T04:24:36.408Z,10.10
2019-02-05T04:27:45.021Z,10.23
2019-02-05T04:30:40.381Z,10.13
2019-02-05T04:33:39.779Z,10.07
2019-02-05T04:36:30.239Z,10.30
2019-02-05T04:39:39.975Z,10.23
2019-02-05T04:42:42.664Z,10.47
2019-02-05T04:45:42.170Z,10.03
2019-02-05T04:48:53.971Z,10.53
2019-02-05T04:51:56.237Z,10.33
2019-02-05T04:54:55.638Z,10.13
2019-02-05T04:58:01.781Z,11.07
2019-02-05T05:01:07.143Z,10.90
2019-02-05T05:04:20.277Z,10.93
2019-02-05T05:07:10.562Z,11.53
2019-02-05T05:09:58.883Z,10.53
2019-02-05T05:12:45.926Z,11.50
2019-02-05T05:15:33.348Z,12.03
2019-02-05T05:18:20.675Z,10.90
2019-02-05T05:21:07.922Z,11.70
2019-02-05T05:23:56.745Z,11.73
2019-02-05T05:26:44.930Z,12.50
2019-02-05T05:29:33.193Z,11.93
2019-02-05T05:32:21.065Z,12.13
2019-02-05T05:35:10.026Z,12.17
2019-02-05T05:37:57.221Z,12.03
2019-02-05T05:40:44.994Z,11.83
2019-02-05T05:43:32.402Z,12.07
2019-02-05T05:46:19.516Z,12.70
2019-02-05T05:49:06.939Z,12.37
2019-02-05T05:51:54.778Z,12.27
2019-02-05T05:54:43.323Z,13.10
2019-02-05T05:57:30.652Z,13.33
2019-02-05T06:00:19.938Z,12.73
2019-02-05T06:03:07.340Z,13.03
2019-02-05T06:05:54.868Z,13.00
2019-02-05T06:08:42.695Z,13.53
2019-02-05T06:11:30.017Z,13.27
2019-02-05T06:14:17.676Z,12.57
2019-02-05T06:17:04.970Z,13.60
2019-02-05T06:19:52.521Z,13.00
2019-02-05T06:22:40.552Z,13.27
2019-02-05T06:25:28.274Z,13.67
2019-02-05T06:28:15.692Z,13.30
2019-02-05T06:31:03.214Z,13.03
2019-02-05T06:33:51.047Z,14.07
2019-02-05T06:36:38.478Z,13.67
2019-02-05T06:39:25.794Z,14.33
2019-02-05T06:42:13.012Z,13.60
2019-02-05T06:44:59.932Z,13.83
2019-02-05T06:47:47.447Z,13.40
2019-02-05T06:50:35.091Z,13.80
2019-02-05T06:53:22.563Z,13.73
2019-02-05T06:56:09.622Z,14.73
2019-02-05T06:58:57.659Z,14.17
2019-02-05T07:01:45.394Z,14.50
2019-02-05T07:04:33.327Z,14.83
2019-02-05T07:07:20.648Z,14.00
2019-02-05T07:10:24.906Z,14.53
2019-02-05T07:13:13.823Z,14.27
2019-02-05T07:16:02.483Z,15.07
2019-02-05T07:18:50.106Z,15.27
2019-02-05T07:21:37.632Z,15.47
2019-02-05T07:24:25.060Z,15.60
2019-02-05T07:27:12.587Z,15.50
2019-02-05T07:30:00.421Z,16.60
2019-02-05T07:32:47.947Z,14.80
2019-02-05T07:35:35.168Z,15.00
2019-02-05T07:38:22.791Z,16.10
2019-02-05T07:41:10.214Z,16.40
2019-02-05T07:43:57.535Z,16.87
2019-02-05T07:46:45.268Z,17.07
2019-02-05T07:49:32.282Z,17.23
2019-02-05T07:52:19.916Z,17.03
2019-02-05T07:55:10.189Z,16.97
2019-02-05T07:57:57.936Z,17.80
2019-02-05T08:00:45.568Z,16.93
2019-02-05T08:03:32.987Z,17.60
2019-02-05T08:06:20.626Z,17.60
2019-02-05T08:09:09.370Z,17.30
2019-02-05T08:11:57.104Z,16.93
2019-02-05T08:14:44.743Z,17.70
2019-02-05T08:17:31.848Z,17.30
2019-02-05T08:20:20.399Z,17.33
2019-02-05T08:23:08.034Z,17.63
2019-02-05T08:25:55.658Z,18.03
2019-02-05T08:28:42.989Z,17.13
2019-02-05T08:31:30.094Z,17.03
2019-02-05T08:34:17.517Z,18.17
2019-02-05T08:37:05.146Z,19.40
2019-02-05T08:39:53.183Z,18.50
2019-02-05T08:42:41.123Z,17.83
2019-02-05T08:45:37.609Z,18.37
2019-02-05T08:48:24.775Z,18.17
2019-02-05T08:51:12.095Z,17.83
2019-02-05T08:53:59.730Z,18.00
2019-02-05T08:56:47.272Z,18.63
2019-02-05T08:59:34.969Z,17.67
2019-02-05T09:02:22.306Z,18.07
2019-02-05T09:05:10.114Z,18.53
2019-02-05T09:07:57.974Z,18.03
2019-02-05T09:10:45.498Z,18.07
2019-02-05T09:13:33.435Z,17.37
2019-02-05T09:16:20.861Z,17.80
2019-02-05T09:19:08.486Z,18.67
2019-02-05T09:21:56.114Z,17.63
2019-02-05T09:24:43.552Z,17.27
2019-02-05T09:27:31.373Z,18.33
2019-02-05T09:30:20.943Z,18.30
2019-02-05T09:33:11.907Z,18.17
2019-02-05T09:35:59.087Z,18.83
2019-02-05T09:38:46.804Z,18.77
2019-02-05T09:41:34.433Z,18.17
2019-02-05T09:44:22.268Z,17.83
2019-02-05T09:47:09.402Z,18.60
2019-02-05T09:49:57.333Z,18.43
2019-02-05T09:52:44.436Z,18.57
2019-02-05T09:55:31.765Z,19.60
2019-02-05T09:58:19.080Z,19.30
2019-02-05T10:01:07.264Z,19.27
2019-02-05T10:03:54.438Z,19.50
2019-02-05T10:06:42.278Z,19.37
2019-02-05T10:09:29.701Z,18.97
2019-02-05T10:12:16.811Z,18.80
2019-02-05T10:15:06.907Z,18.63
2019-02-05T10:17:54.217Z,18.53
2019-02-05T10:20:42.362Z,18.30
2019-02-05T10:23:29.583Z,18.63
2019-02-05T10:26:17.211Z,19.00
2019-02-05T10:29:04.939Z,19.07
2019-02-05T10:31:52.574Z,18.90
2019-02-05T10:34:40.199Z,19.87
2019-02-05T10:37:27.621Z,18.93
2019-02-05T10:40:16.781Z,20.50
2019-02-05T10:43:04.980Z,19.53
2019-02-05T10:45:52.353Z,19.57
2019-02-05T10:48:39.781Z,19.20
2019-02-05T10:51:27.507Z,20.60
2019-02-05T10:54:14.933Z,20.47
2019-02-05T10:57:02.263Z,21.00
2019-02-05T10:59:49.573Z,19.97
2019-02-05T11:02:37.306Z,20.13
2019-02-05T11:05:26.680Z,19.90
2019-02-05T11:08:13.896Z,20.10
2019-02-05T11:11:01.505Z,19.93
2019-02-05T11:13:49.252Z,19.93
2019-02-05T11:16:36.885Z,20.10
2019-02-05T11:19:23.795Z,19.50
2019-02-05T11:22:11.217Z,20.83
2019-02-05T11:24:58.949Z,20.47
2019-02-05T11:27:46.991Z,19.83
2019-02-05T11:30:43.019Z,19.03
2019-02-05T11:33:30.849Z,18.73
2019-02-05T11:36:18.577Z,19.27
2019-02-05T11:39:09.182Z,19.83
2019-02-05T11:41:56.601Z,19.80
2019-02-05T11:44:45.252Z,19.67
2019-02-05T11:47:32.269Z,20.03
2019-02-05T11:50:20.101Z,20.73
2019-02-05T11:53:07.523Z,19.60
2019-02-05T11:55:54.956Z,19.97
2019-02-05T11:58:42.580Z,18.60
2019-02-05T12:01:38.515Z,19.27
2019-02-05T12:04:19.882Z,18.70
2019-02-05T12:07:08.341Z,18.17
2019-02-05T12:09:55.757Z,19.27
2019-02-05T12:12:43.593Z,18.97
2019-02-05T12:15:30.806Z,19.77
2019-02-05T12:18:18.399Z,18.93
2019-02-05T12:21:05.759Z,18.73
2019-02-05T12:23:53.088Z,19.73
2019-02-05T12:26:40.403Z,18.30
2019-02-05T12:29:27.442Z,19.27
2019-02-05T12:32:15.251Z,18.63
2019-02-05T12:35:02.878Z,19.10
2019-02-05T12:37:50.307Z,18.77
2019-02-05T12:40:38.242Z,18.63
2019-02-05T12:43:25.766Z,18.97
2019-02-05T12:46:13.600Z,18.30
2019-02-05T12:49:00.822Z,18.50
2019-02-05T12:51:49.469Z,18.50
2019-02-05T12:54:38.528Z,18.50
2019-02-05T12:57:25.869Z,18.90
2019-02-05T13:00:16.557Z,18.20
2019-02-05T13:03:04.657Z,18.87
2019-02-05T13:05:51.988Z,18.00
2019-02-05T13:08:39.339Z,17.93
2019-02-05T13:11:27.074Z,19.03
2019-02-05T13:14:14.494Z,19.97
2019-02-05T13:17:01.922Z,18.37
2019-02-05T13:19:49.956Z,18.70
2019-02-05T13:22:37.693Z,19.37
2019-02-05T13:25:27.174Z,19.77
2019-02-05T13:28:15.722Z,19.70
2019-02-05T13:31:08.236Z,18.80
2019-02-05T13:33:53.430Z,20.13
2019-02-05T13:36:40.543Z,19.83
2019-02-05T13:39:27.645Z,19.93
2019-02-05T13:42:15.392Z,20.27
2019-02-05T13:45:03.535Z,19.97
2019-02-05T13:47:52.264Z,19.43
2019-02-05T13:50:39.710Z,19.13
2019-02-05T13:53:27.133Z,20.20
2019-02-05T13:56:14.157Z,19.73
2019-02-05T13:59:01.367Z,19.83
2019-02-05T14:01:48.909Z,20.43
2019-02-05T14:04:37.036Z,19.67
2019-02-05T14:07:24.254Z,19.83
2019-02-05T14:10:14.714Z,20.20
2019-02-05T14:13:01.763Z,19.67
2019-02-05T14:15:51.017Z,19.73
2019-02-05T14:18:37.943Z,19.13
2019-02-05T14:21:27.765Z,18.67
2019-02-05T14:24:14.956Z,19.67
2019-02-05T14:27:02.368Z,18.93
2019-02-05T14:29:50.203Z,18.73
2019-02-05T14:32:37.626Z,19.15
2019-02-05T14:35:25.362Z,19.17
2019-02-05T14:38:13.596Z,19.13
2019-02-05T14:41:00.930Z,19.37
2019-02-05T14:43:48.856Z,19.30
2019-02-05T14:46:36.076Z,19.90
2019-02-05T14:49:23.908Z,19.90
2019-02-05T14:52:11.231Z,21.37
2019-02-05T14:54:59.072Z,24.53
2019-02-05T14:57:46.487Z,23.47
2019-02-05T15:00:35.298Z,23.13
2019-02-05T15:03:23.076Z,21.07
2019-02-05T15:06:10.709Z,25.57
2019-02-05T15:08:58.543Z,21.17
2019-02-05T15:11:47.303Z,20.80
2019-02-05T15:14:35.026Z,19.93
2019-02-05T15:17:22.861Z,20.17
2019-02-05T15:20:19.704Z,19.70
2019-02-05T15:23:08.274Z,20.00
2019-02-05T15:25:55.783Z,20.37
2019-02-05T15:28:43.821Z,20.47
2019-02-05T15:31:31.247Z,21.07
2019-02-05T15:34:20.102Z,20.53
2019-02-05T15:37:07.530Z,21.57
2019-02-05T15:39:55.357Z,20.80
2019-02-05T15:42:42.679Z,21.73
2019-02-05T15:45:30.107Z,21.77
2019-02-05T15:48:17.633Z,22.07
2019-02-05T15:51:05.459Z,23.03
2019-02-05T15:53:52.990Z,23.10
2019-02-05T15:56:40.394Z,24.03
2019-02-05T15:59:28.350Z,24.73
2019-02-05T16:02:15.777Z,24.57
2019-02-05T16:05:03.097Z,24.20
2019-02-05T16:07:50.623Z,23.80
2019-02-05T16:10:38.558Z,23.87
2019-02-05T16:13:25.983Z,24.40
2019-02-05T16:16:13.407Z,24.30
2019-02-05T16:19:01.345Z,23.83
2019-02-05T16:21:49.039Z,24.90
2019-02-05T16:24:36.397Z,24.93
2019-02-05T16:27:24.142Z,23.57
2019-02-05T16:30:14.526Z,24.80
2019-02-05T16:33:02.356Z,24.10
2019-02-05T16:35:51.579Z,23.83
2019-02-05T16:38:39.046Z,24.57
2019-02-05T16:41:26.470Z,23.37
2019-02-05T16:44:14.202Z,25.07
2019-02-05T16:47:01.733Z,25.13
2019-02-05T16:49:49.048Z,25.30
2019-02-05T16:52:36.489Z,24.03
2019-02-05T16:55:23.600Z,23.90
2019-02-05T16:58:11.326Z,23.83
2019-02-05T17:01:00.652Z,31.73
2019-02-05T17:03:48.096Z,30.37
2019-02-05T17:06:35.639Z,27.63
2019-02-05T17:09:23.080Z,29.10
2019-02-05T17:12:10.908Z,27.40
2019-02-05T17:14:58.534Z,25.80
2019-02-05T17:17:47.855Z,25.23
2019-02-05T17:20:36.571Z,25.20
2019-02-05T17:23:24.178Z,26.70
2019-02-05T17:26:11.295Z,24.77
2019-02-05T17:28:58.930Z,26.00
2019-02-05T17:31:46.043Z,24.43
2019-02-05T17:34:33.491Z,25.73
2019-02-05T17:37:21.100Z,24.63
2019-02-05T17:40:11.396Z,26.77
2019-02-05T17:42:59.241Z,24.73
2019-02-05T17:45:47.053Z,25.50
2019-02-05T17:48:34.782Z,26.43
2019-02-05T17:51:23.717Z,25.53
2019-02-05T17:54:11.185Z,25.57
2019-02-05T17:56:59.043Z,25.40
2019-02-05T17:59:46.530Z,26.80
2019-02-05T18:02:36.001Z,25.53
2019-02-05T18:05:25.016Z,24.13
2019-02-05T18:08:13.976Z,25.90
2019-02-05T18:11:01.688Z,24.33
2019-02-05T18:13:48.872Z,25.43
2019-02-05T18:16:37.218Z,26.30
2019-02-05T18:19:24.441Z,26.77
2019-02-05T18:22:12.779Z,26.40
2019-02-05T18:25:00.479Z,27.33
2019-02-05T18:27:48.655Z,26.00
2019-02-05T18:30:42.425Z,25.83
2019-02-05T18:33:30.260Z,26.87
2019-02-05T18:36:22.602Z,26.87
2019-02-05T18:39:10.537Z,26.60
2019-02-05T18:41:58.061Z,27.20
2019-02-05T18:44:48.089Z,30.60
2019-02-05T18:47:34.343Z,31.00
2019-02-05T18:50:27.054Z,28.97
2019-02-05T18:53:14.925Z,27.77
2019-02-05T18:56:02.555Z,27.40
2019-02-05T18:58:50.385Z,27.47
2019-02-05T19:01:37.914Z,27.20
2019-02-05T19:04:25.621Z,27.63
2019-02-05T19:07:14.095Z,27.33
2019-02-05T19:10:01.318Z,26.97
2019-02-05T19:12:48.734Z,29.13
2019-02-05T19:15:38.180Z,28.63
2019-02-05T19:18:25.528Z,27.20
2019-02-05T19:21:12.963Z,27.57
2019-02-05T19:24:02.322Z,26.97
2019-02-05T19:26:49.643Z,28.37
2019-02-05T19:29:37.069Z,27.37
2019-02-05T19:32:25.078Z,27.40
2019-02-05T19:35:12.733Z,26.97
2019-02-05T19:38:00.160Z,27.77
2019-02-05T19:40:57.181Z,26.93
2019-02-05T19:43:37.467Z,27.77
2019-02-05T19:46:41.518Z,26.20
2019-02-05T19:49:29.722Z,27.07
2019-02-05T19:52:17.249Z,26.57
2019-02-05T19:55:07.435Z,26.10
2019-02-05T19:57:55.067Z,26.07
2019-02-05T20:00:42.489Z,26.47
2019-02-05T20:03:38.331Z,27.23
2019-02-05T20:06:19.904Z,25.37
2019-02-05T20:09:10.393Z,26.00
2019-02-05T20:11:57.590Z,25.67
2019-02-05T20:14:45.036Z,25.17
2019-02-05T20:17:32.257Z,25.27
2019-02-05T20:20:21.013Z,25.57
2019-02-05T20:23:08.747Z,26.33
2019-02-05T20:25:56.063Z,23.40
2019-02-05T20:28:43.591Z,24.50
2019-02-05T20:31:30.707Z,24.63
2019-02-05T20:34:18.254Z,24.20
2019-02-05T20:37:06.467Z,23.67
2019-02-05T20:39:53.606Z,24.20
2019-02-05T20:42:41.122Z,22.87
2019-02-05T20:45:28.424Z,22.87
2019-02-05T20:48:15.972Z,22.27
2019-02-05T20:51:03.499Z,24.07
2019-02-05T20:53:51.124Z,24.47
2019-02-05T20:56:38.550Z,24.70
2019-02-05T20:59:26.096Z,24.73
2019-02-05T21:02:13.087Z,24.63
2019-02-05T21:05:00.675Z,23.57
2019-02-05T21:07:49.387Z,25.00
2019-02-05T21:10:37.099Z,24.80
2019-02-05T21:13:25.547Z,25.10
2019-02-05T21:16:12.663Z,24.77
2019-02-05T21:19:00.398Z,22.90
2019-02-05T21:21:47.615Z,23.90
2019-02-05T21:24:34.951Z,23.90
2019-02-05T21:27:22.363Z,23.73
2019-02-05T21:30:13.558Z,24.10
2019-02-05T21:33:00.899Z,22.97
2019-02-05T21:35:48.233Z,23.67
2019-02-05T21:38:35.129Z,23.97
2019-02-05T21:41:22.575Z,23.30
2019-02-05T21:44:09.977Z,22.77
2019-02-05T21:46:57.711Z,24.50
2019-02-05T21:49:45.032Z,25.13
2019-02-05T21:52:32.250Z,23.13
2019-02-05T21:55:21.115Z,23.43
2019-02-05T21:58:08.631Z,23.93
2019-02-05T22:00:56.056Z,23.07
2019-02-05T22:03:44.048Z,23.57
2019-02-05T22:06:31.648Z,23.67
2019-02-05T22:09:18.851Z,23.27
2019-02-05T22:12:06.906Z,23.70
2019-02-05T22:14:54.100Z,23.07
2019-02-05T22:17:41.724Z,23.90
2019-02-05T22:20:30.315Z,23.83
2019-02-05T22:23:17.810Z,23.97
2019-02-05T22:26:05.422Z,24.23
2019-02-05T22:28:52.755Z,24.37
2019-02-05T22:31:40.179Z,24.67
2019-02-05T22:34:38.964Z,24.20
2019-02-05T22:37:16.767Z,23.83
2019-02-05T22:40:07.065Z,25.23
2019-02-05T22:42:55.098Z,24.20
2019-02-05T22:45:42.523Z,24.63
2019-02-05T22:48:30.150Z,24.03
2019-02-05T22:51:17.559Z,24.47
2019-02-05T22:54:05.507Z,25.73
2019-02-05T22:56:53.257Z,24.60
2019-02-05T22:59:41.897Z,22.97
2019-02-05T23:02:29.429Z,22.40
2019-02-05T23:05:46.131Z,24.67
2019-02-05T23:08:34.066Z,22.77
2019-02-05T23:11:42.890Z,23.53
2019-02-05T23:14:30.519Z,23.47
2019-02-05T23:17:18.353Z,23.17
2019-02-05T23:20:09.055Z,24.13
2019-02-05T23:22:57.278Z,24.07
2019-02-05T23:25:44.926Z,24.63
2019-02-05T23:28:32.257Z,23.90
2019-02-05T23:31:19.683Z,23.60
2019-02-05T23:34:07.309Z,22.80
2019-02-05T23:36:54.933Z,23.90
2019-02-05T23:39:42.353Z,24.07
2019-02-05T23:42:29.779Z,24.53
2019-02-05T23:45:17.918Z,23.20
2019-02-05T23:48:05.753Z,23.63
2019-02-05T23:50:53.482Z,22.63
2019-02-05T23:53:40.911Z,22.57
2019-02-05T23:56:29.088Z,22.43
2019-02-05T23:59:16.703Z,22.27
